createdAt,value
2023-01-06T00:00:21.873Z,96.27
2023-01-06T00:02:02.093Z,96.36
2023-01-06T00:03:42.348Z,96.41
2023-01-06T00:05:22.658Z,96.46
2023-01-06T00:07:02.950Z,96.44
2023-01-06T00:08:43.279Z,96.43
2023-01-06T00:10:23.583Z,96.41
2023-01-06T00:12:03.862Z,96.42
2023-01-06T00:13:44.135Z,96.37
2023-01-06T00:15:24.443Z,96.29
2023-01-06T00:17:04.747Z,96.17
2023-01-06T00:18:45.078Z,96.21
2023-01-06T00:20:25.325Z,96.23
2023-01-06T00:22:05.597Z,96.24
2023-01-06T00:23:45.950Z,96.26
2023-01-06T00:25:26.246Z,96.35
2023-01-06T00:27:06.519Z,96.3
2023-01-06T00:28:46.854Z,96.32
2023-01-06T00:30:27.110Z,96.38
2023-01-06T00:32:07.405Z,96.39
2023-01-06T00:33:47.692Z,96.42
2023-01-06T00:35:28.050Z,96.45
2023-01-06T00:37:08.297Z,96.57
2023-01-06T00:38:48.629Z,96.66
2023-01-06T00:43:49.484Z,96.78
2023-01-06T00:45:29.757Z,96.83
2023-01-06T00:47:10.043Z,96.88
2023-01-06T00:49:04.266Z,97
2023-01-06T00:50:30.631Z,97.02
2023-01-06T00:52:10.975Z,97.02
2023-01-06T00:53:51.222Z,97.02
2023-01-06T00:55:31.521Z,97.16
2023-01-06T00:57:11.849Z,97.22
2023-01-06T00:58:52.112Z,97.33
2023-01-06T01:00:32.416Z,97.43
2023-01-06T01:02:12.844Z,97.47
2023-01-06T01:03:53.008Z,97.51
2023-01-06T01:05:33.278Z,97.4
2023-01-06T01:07:13.619Z,97.38
2023-01-06T01:08:53.925Z,97.36
2023-01-06T01:10:34.190Z,97.33
2023-01-06T01:12:14.484Z,97.3
2023-01-06T01:13:54.808Z,97.32
2023-01-06T01:15:35.133Z,97.26
2023-01-06T01:17:15.375Z,97.26
2023-01-06T01:18:55.703Z,97.2
2023-01-06T01:20:35.991Z,97.24
2023-01-06T01:22:16.261Z,97.21
2023-01-06T01:23:56.612Z,97.28
2023-01-06T01:25:37.015Z,97.33
2023-01-06T01:27:17.360Z,97.34
2023-01-06T01:28:57.741Z,97.38
2023-01-06T01:32:18.522Z,97.5
2023-01-06T01:33:58.865Z,97.51
2023-01-06T01:35:39.263Z,97.5
2023-01-06T01:37:19.653Z,97.43
2023-01-06T01:38:59.980Z,97.51
2023-01-06T01:40:40.363Z,97.59
2023-01-06T01:42:20.727Z,97.68
2023-01-06T01:44:01.161Z,97.7
2023-01-06T01:45:41.521Z,97.63
2023-01-06T01:47:21.914Z,97.69
2023-01-06T01:49:02.288Z,97.79
2023-01-06T01:50:42.683Z,97.83
2023-01-06T01:52:23.025Z,97.87
2023-01-06T01:54:03.409Z,97.98
2023-01-06T01:55:43.827Z,98
2023-01-06T01:57:24.250Z,98.1
2023-01-06T01:59:04.568Z,98.18
2023-01-06T02:00:44.887Z,98.26
2023-01-06T02:02:25.278Z,98.27
2023-01-06T02:04:05.548Z,98.25
2023-01-06T02:05:45.797Z,98.32
2023-01-06T02:07:26.129Z,98.42
2023-01-06T02:09:06.428Z,98.41
2023-01-06T02:10:46.702Z,98.47
2023-01-06T02:12:26.974Z,98.57
2023-01-06T02:14:07.299Z,98.61
2023-01-06T02:15:47.615Z,98.67
2023-01-06T02:17:27.859Z,98.76
2023-01-06T02:19:08.180Z,98.76
2023-01-06T02:20:48.449Z,98.75
2023-01-06T02:22:28.752Z,98.76
2023-01-06T02:24:09.049Z,98.77
2023-01-06T02:25:49.354Z,98.81
2023-01-06T02:27:29.653Z,99.11
2023-01-06T02:29:09.965Z,99.3
2023-01-06T02:30:50.271Z,99.33
2023-01-06T02:32:30.570Z,99.24
2023-01-06T02:34:10.824Z,99.03
2023-01-06T02:35:51.108Z,98.98
2023-01-06T02:37:31.428Z,98.96
2023-01-06T02:39:11.704Z,98.98
2023-01-06T02:40:52.001Z,99.01
2023-01-06T02:42:32.318Z,99.02
2023-01-06T02:44:12.630Z,99
2023-01-06T02:45:52.920Z,98.95
2023-01-06T02:47:33.256Z,98.99
2023-01-06T02:49:13.566Z,98.93
2023-01-06T02:50:53.853Z,98.88
2023-01-06T02:52:34.124Z,98.91
2023-01-06T02:54:14.434Z,98.96
2023-01-06T02:55:54.705Z,98.97
2023-01-06T02:57:35.009Z,99.02
2023-01-06T02:59:15.277Z,99.08
2023-01-06T03:00:55.574Z,99.15
2023-01-06T03:02:35.917Z,99.15
2023-01-06T03:04:16.299Z,99.17
2023-01-06T03:05:56.443Z,99.13
2023-01-06T03:07:36.761Z,99.2
2023-01-06T03:09:17.066Z,99.3
2023-01-06T03:10:57.351Z,99.33
2023-01-06T03:12:37.663Z,99.19
2023-01-06T03:14:17.956Z,99.1
2023-01-06T03:15:58.369Z,98.91
2023-01-06T03:17:38.558Z,98.73
2023-01-06T03:19:18.890Z,98.63
2023-01-06T03:20:59.130Z,98.55
2023-01-06T03:22:39.435Z,98.45
2023-01-06T03:24:19.768Z,98.37
2023-01-06T03:26:00.189Z,98.3
2023-01-06T03:27:40.531Z,98.17
2023-01-06T03:29:20.802Z,98.05
2023-01-06T03:31:01.043Z,98.05
2023-01-06T03:32:41.362Z,98.02
2023-01-06T03:34:21.656Z,97.98
2023-01-06T03:36:01.946Z,98
2023-01-06T03:37:42.233Z,98.01
2023-01-06T03:39:22.519Z,98
2023-01-06T03:41:02.847Z,97.98
2023-01-06T03:42:43.126Z,97.99
2023-01-06T03:44:23.413Z,98.05
2023-01-06T03:46:03.776Z,98.03
2023-01-06T03:47:44.057Z,98.06
2023-01-06T03:49:24.360Z,98.09
2023-01-06T03:51:04.663Z,98.08
2023-01-06T03:52:44.934Z,98.03
2023-01-06T03:54:25.237Z,98.08
2023-01-06T03:56:05.546Z,98.13
2023-01-06T03:57:45.831Z,98.01
2023-01-06T03:59:26.115Z,98
2023-01-06T04:01:06.718Z,98.07
2023-01-06T04:02:46.719Z,98.14
2023-01-06T04:04:27.006Z,98.13
2023-01-06T04:06:07.324Z,98.21
2023-01-06T04:07:47.595Z,98.21
2023-01-06T04:09:27.919Z,98.23
2023-01-06T04:11:08.186Z,98.3
2023-01-06T04:12:48.488Z,98.25
2023-01-06T04:14:28.775Z,98.23
2023-01-06T04:16:09.108Z,98.19
2023-01-06T04:17:49.401Z,98.19
2023-01-06T04:19:29.685Z,98.23
2023-01-06T04:21:09.963Z,98.21
2023-01-06T04:22:50.282Z,98.08
2023-01-06T04:24:30.599Z,97.94
2023-01-06T04:26:10.897Z,97.66
2023-01-06T04:27:51.207Z,97.45
2023-01-06T04:29:31.499Z,97.2
2023-01-06T04:31:11.802Z,97.02
2023-01-06T04:32:52.065Z,96.82
2023-01-06T04:34:32.373Z,96.52
2023-01-06T04:36:12.690Z,96.49
2023-01-06T04:37:52.960Z,96.65
2023-01-06T04:39:33.258Z,96.74
2023-01-06T04:41:13.569Z,96.79
2023-01-06T04:42:53.841Z,96.82
2023-01-06T04:44:34.139Z,96.87
2023-01-06T04:46:14.439Z,96.87
2023-01-06T04:47:54.732Z,96.89
2023-01-06T04:49:35.040Z,96.76
2023-01-06T04:51:15.332Z,96.6
2023-01-06T04:52:55.647Z,96.5
2023-01-06T04:54:35.916Z,96.39
2023-01-06T04:56:16.224Z,96.32
2023-01-06T04:57:56.500Z,95.92
2023-01-06T04:59:36.813Z,95.35
2023-01-06T05:01:17.212Z,95.12
2023-01-06T05:02:57.383Z,95.05
2023-01-06T05:04:47.336Z,94.72
2023-01-06T05:06:17.987Z,94.45
2023-01-06T05:07:58.274Z,94.41
2023-01-06T05:09:38.566Z,94.06
2023-01-06T05:11:18.869Z,93.62
2023-01-06T05:12:59.166Z,92.83
2023-01-06T05:14:39.455Z,92.81
2023-01-06T05:16:19.833Z,92.8
2023-01-06T05:18:00.046Z,93.25
2023-01-06T05:19:40.333Z,93.4
2023-01-06T05:21:20.608Z,92.91
2023-01-06T05:23:00.911Z,93.07
2023-01-06T05:24:41.292Z,93.26
2023-01-06T05:26:21.603Z,93.19
2023-01-06T05:28:01.874Z,92.92
2023-01-06T05:29:42.176Z,93.02
2023-01-06T05:31:22.617Z,91.85
2023-01-06T05:33:02.781Z,91.41
2023-01-06T05:34:43.050Z,90.35
2023-01-06T05:36:23.356Z,90.22
2023-01-06T05:38:03.652Z,88.78
2023-01-06T05:39:43.926Z,87.08
2023-01-06T05:41:24.193Z,87.91
2023-01-06T05:43:04.519Z,87.8
2023-01-06T05:44:44.806Z,86.1
2023-01-06T05:46:25.125Z,86.16
2023-01-06T05:48:05.404Z,85.92
2023-01-06T05:49:46.881Z,86.64
2023-01-06T05:51:26.008Z,85.69
2023-01-06T05:53:06.287Z,84.16
2023-01-06T05:54:46.616Z,85.27
2023-01-06T05:56:26.906Z,82.6
2023-01-06T05:58:07.180Z,83.29
2023-01-06T05:59:47.491Z,82.75
2023-01-06T06:01:27.802Z,80.67
2023-01-06T06:03:08.091Z,78.9
2023-01-06T06:04:48.363Z,79.87
2023-01-06T06:06:28.634Z,79.02
2023-01-06T06:08:09.395Z,80.36
2023-01-06T06:09:49.246Z,79.23
2023-01-06T06:11:29.531Z,79.34
2023-01-06T06:13:09.793Z,78.88
2023-01-06T06:14:50.124Z,78.79
2023-01-06T06:16:30.519Z,80.26
2023-01-06T06:18:10.721Z,78.84
2023-01-06T06:19:51.080Z,79.39
2023-01-06T06:21:31.485Z,79.6
2023-01-06T06:23:11.904Z,80
2023-01-06T06:24:52.265Z,80.33
2023-01-06T06:26:32.572Z,80.14
2023-01-06T06:28:12.871Z,80.37
2023-01-06T06:29:53.181Z,80.23
2023-01-06T06:31:33.547Z,80.42
2023-01-06T06:33:13.722Z,80.13
2023-01-06T06:34:54.030Z,80.62
2023-01-06T06:36:34.352Z,80.87
2023-01-06T06:38:14.592Z,80.54
2023-01-06T06:39:54.895Z,80.85
2023-01-06T06:41:35.203Z,81.29
2023-01-06T06:43:15.484Z,81.44
2023-01-06T06:44:55.795Z,81.17
2023-01-06T06:46:36.199Z,81.14
2023-01-06T06:48:16.591Z,80.95
2023-01-06T06:49:56.972Z,81.09
2023-01-06T06:51:37.389Z,81.09
2023-01-06T06:53:17.716Z,81.11
2023-01-06T06:54:58.109Z,80.71
2023-01-06T06:56:38.484Z,79.53
2023-01-06T06:58:18.833Z,79.54
2023-01-06T06:59:59.205Z,79.74
2023-01-06T07:01:39.628Z,79.94
2023-01-06T07:03:19.820Z,79.58
2023-01-06T07:05:00.155Z,79.8
2023-01-06T07:06:40.360Z,79.09
2023-01-06T07:08:20.721Z,78.78
2023-01-06T07:10:01.119Z,79.23
2023-01-06T07:11:41.493Z,79.43
2023-01-06T07:13:21.882Z,79.57
2023-01-06T07:15:02.213Z,79.45
2023-01-06T07:16:42.502Z,79.32
2023-01-06T07:18:22.832Z,79.73
2023-01-06T07:20:03.164Z,79.55
2023-01-06T07:21:43.433Z,79.39
2023-01-06T07:23:23.764Z,79.29
2023-01-06T07:25:04.062Z,79.24
2023-01-06T07:26:44.384Z,79.37
2023-01-06T07:28:24.680Z,79.22
2023-01-06T07:30:05.029Z,79.42
2023-01-06T07:31:45.323Z,79.75
2023-01-06T07:33:25.630Z,79.9
2023-01-06T07:35:05.996Z,80.19
2023-01-06T07:36:46.327Z,80.25
2023-01-06T07:38:26.604Z,80.17
2023-01-06T07:40:06.930Z,80.16
2023-01-06T07:41:47.302Z,80.45
2023-01-06T07:43:27.715Z,80.63
2023-01-06T07:45:08.006Z,80.65
2023-01-06T07:46:48.245Z,80.6
2023-01-06T07:48:28.475Z,80.6
2023-01-06T07:50:08.770Z,80.76
2023-01-06T07:51:49.165Z,80.46
2023-01-06T07:53:29.551Z,80.21
2023-01-06T07:55:10.029Z,80.82
2023-01-06T07:56:50.205Z,80.41
2023-01-06T07:58:30.498Z,80.79
2023-01-06T08:00:10.828Z,80.35
2023-01-06T08:01:51.268Z,80.13
2023-01-06T08:03:31.585Z,80.19
2023-01-06T08:05:12.007Z,80.16
2023-01-06T08:06:52.380Z,80.1
2023-01-06T08:08:32.737Z,79.74
2023-01-06T08:10:13.105Z,80.29
2023-01-06T08:11:53.505Z,80.11
2023-01-06T08:13:33.863Z,79.99
2023-01-06T08:15:14.303Z,80
2023-01-06T08:16:54.731Z,79.95
2023-01-06T08:18:35.117Z,80.01
2023-01-06T08:20:15.476Z,80.21
2023-01-06T08:21:55.908Z,80.5
2023-01-06T08:23:36.285Z,80.41
2023-01-06T08:25:16.721Z,80.6
2023-01-06T08:26:57.109Z,80.44
2023-01-06T08:28:37.468Z,80.49
2023-01-06T08:30:17.858Z,80.58
2023-01-06T08:32:09.830Z,80.58
2023-01-06T08:33:38.583Z,80.53
2023-01-06T08:35:18.914Z,80.35
2023-01-06T08:36:59.209Z,80.5
2023-01-06T08:38:39.542Z,80.79
2023-01-06T08:40:19.881Z,80.64
2023-01-06T08:42:00.213Z,80.57
2023-01-06T08:43:40.540Z,80.79
2023-01-06T08:45:20.865Z,80.51
2023-01-06T08:47:01.141Z,80.67
2023-01-06T08:48:41.473Z,80.63
2023-01-06T08:50:21.774Z,80.69
2023-01-06T08:52:02.125Z,80.79
2023-01-06T08:53:42.431Z,80.56
2023-01-06T08:55:22.753Z,80.53
2023-01-06T08:57:03.055Z,80.3
2023-01-06T08:58:43.375Z,80.57
2023-01-06T09:00:23.704Z,80.32
2023-01-06T09:02:04.218Z,80.64
2023-01-06T09:03:44.323Z,80.48
2023-01-06T09:05:24.639Z,80.52
2023-01-06T09:07:04.963Z,80.45
2023-01-06T09:08:45.265Z,80.38
2023-01-06T09:10:25.608Z,80.23
2023-01-06T09:12:07.511Z,80.66
2023-01-06T09:13:46.240Z,79.9
2023-01-06T09:15:26.536Z,80.16
2023-01-06T09:17:06.971Z,80.75
2023-01-06T09:18:47.188Z,80.46
2023-01-06T09:20:27.511Z,80.02
2023-01-06T09:22:07.819Z,79.83
2023-01-06T09:23:48.135Z,80.26
2023-01-06T09:25:28.452Z,80.1
2023-01-06T09:27:08.779Z,79.93
2023-01-06T09:28:49.062Z,79.71
2023-01-06T09:30:29.428Z,79.52
2023-01-06T09:32:09.765Z,78.71
2023-01-06T09:33:50.039Z,78.93
2023-01-06T09:35:30.355Z,78.4
2023-01-06T09:37:10.709Z,79.06
2023-01-06T09:38:50.999Z,78.65
2023-01-06T09:40:31.303Z,78.87
2023-01-06T09:42:11.646Z,78.75
2023-01-06T09:43:51.966Z,79.48
2023-01-06T09:45:32.273Z,79.17
2023-01-06T09:47:12.585Z,79.5
2023-01-06T09:48:52.914Z,79.17
2023-01-06T09:50:33.208Z,79.54
2023-01-06T09:52:13.502Z,79.15
2023-01-06T09:53:53.838Z,79.14
2023-01-06T09:55:34.177Z,79.87
2023-01-06T09:57:14.444Z,80.4
2023-01-06T09:58:54.770Z,80.95
2023-01-06T10:00:35.087Z,81.23
2023-01-06T10:02:15.476Z,81.26
2023-01-06T10:03:55.758Z,81.2
2023-01-06T10:05:36.156Z,81.52
2023-01-06T10:07:16.474Z,81.33
2023-01-06T10:08:56.838Z,81.54
2023-01-06T10:10:37.167Z,81.85
2023-01-06T10:12:17.494Z,82.43
2023-01-06T10:13:57.856Z,82.66
2023-01-06T10:15:38.236Z,82.99
2023-01-06T10:17:18.515Z,83.55
2023-01-06T10:18:58.845Z,84.28
2023-01-06T10:20:39.162Z,84.74
2023-01-06T10:22:19.419Z,84.91
2023-01-06T10:23:59.840Z,84.85
2023-01-06T10:25:40.196Z,85.08
2023-01-06T10:27:20.614Z,85.54
2023-01-06T10:29:00.971Z,85.56
2023-01-06T10:30:44.320Z,85.8
2023-01-06T10:32:21.762Z,85.95
2023-01-06T10:34:02.145Z,86.18
2023-01-06T10:35:42.547Z,86.49
2023-01-06T10:37:22.935Z,86.41
2023-01-06T10:39:03.360Z,86.14
2023-01-06T10:40:43.766Z,86.04
2023-01-06T10:42:24.198Z,85.84
2023-01-06T10:44:04.568Z,86.13
2023-01-06T10:45:45.028Z,86.13
2023-01-06T10:47:25.418Z,85.6
2023-01-06T10:49:05.764Z,85.22
2023-01-06T10:50:46.107Z,85.57
2023-01-06T10:52:26.527Z,85.67
2023-01-06T10:54:06.849Z,86.09
2023-01-06T10:55:47.184Z,86.83
2023-01-06T10:57:27.470Z,86.38
2023-01-06T10:59:07.937Z,86.66
2023-01-06T11:00:48.094Z,86.97
2023-01-06T11:02:28.566Z,86.81
2023-01-06T11:04:08.820Z,86.72
2023-01-06T11:05:49.201Z,86.65
2023-01-06T11:07:29.636Z,85.46
2023-01-06T11:09:09.915Z,85.28
2023-01-06T11:10:50.308Z,85.55
2023-01-06T11:12:30.621Z,86.01
2023-01-06T11:14:11.040Z,85.85
2023-01-06T11:15:51.596Z,85.98
2023-01-06T11:17:31.862Z,85.99
2023-01-06T11:19:12.280Z,86.17
2023-01-06T11:20:52.660Z,86.25
2023-01-06T11:22:33.003Z,86.14
2023-01-06T11:24:13.296Z,87.06
2023-01-06T11:25:53.607Z,87.04
2023-01-06T11:27:33.900Z,87.52
2023-01-06T11:29:14.221Z,86.71
2023-01-06T11:30:54.568Z,86.89
2023-01-06T11:32:34.883Z,86.84
2023-01-06T11:34:15.298Z,86.5
2023-01-06T11:35:55.726Z,86.48
2023-01-06T11:37:36.129Z,86.61
2023-01-06T11:39:16.482Z,87.36
2023-01-06T11:40:56.882Z,87.5
2023-01-06T11:42:37.293Z,88.2
2023-01-06T11:44:17.590Z,88.57
2023-01-06T11:45:57.982Z,89.59
2023-01-06T11:47:38.390Z,89.49
2023-01-06T11:49:19.776Z,89.34
2023-01-06T11:50:58.925Z,89.22
2023-01-06T11:52:39.210Z,89.67
2023-01-06T11:54:19.647Z,90.3
2023-01-06T11:55:59.908Z,91.05
2023-01-06T11:57:40.363Z,90.52
2023-01-06T11:59:20.735Z,90.88
2023-01-06T12:01:01.048Z,91.01
2023-01-06T12:02:41.490Z,90.94
2023-01-06T12:04:21.864Z,91.09
2023-01-06T12:06:02.260Z,91.12
2023-01-06T12:07:42.623Z,91.63
2023-01-06T12:09:23.088Z,91.47
2023-01-06T12:11:03.506Z,91.61
2023-01-06T12:12:43.926Z,92.26
2023-01-06T12:14:28.965Z,92.32
2023-01-06T12:16:04.594Z,92.68
2023-01-06T12:17:45.103Z,92.82
2023-01-06T12:19:25.372Z,92.67
2023-01-06T12:21:05.715Z,92.95
2023-01-06T12:22:46.012Z,93.21
2023-01-06T12:24:26.340Z,93.65
2023-01-06T12:26:06.743Z,93.25
2023-01-06T12:27:47.097Z,93.6
2023-01-06T12:29:27.545Z,93.02
2023-01-06T12:31:13.106Z,92.77
2023-01-06T12:32:53.250Z,93.12
2023-01-06T12:34:33.636Z,92.56
2023-01-06T12:36:14.005Z,92.06
2023-01-06T12:37:54.391Z,90.84
2023-01-06T12:39:34.816Z,90.94
2023-01-06T12:41:15.295Z,91.38
2023-01-06T12:42:55.663Z,90.99
2023-01-06T12:44:36.088Z,91.27
2023-01-06T12:46:16.473Z,90.41
2023-01-06T12:47:56.802Z,90.44
2023-01-06T12:49:37.237Z,90.82
2023-01-06T12:51:17.595Z,91.18
2023-01-06T12:52:58.354Z,89.78
2023-01-06T12:54:38.392Z,88.9
2023-01-06T12:56:18.651Z,88.78
2023-01-06T12:57:58.948Z,87.61
2023-01-06T12:59:39.348Z,88.06
2023-01-06T13:01:19.909Z,88.23
2023-01-06T13:03:00.027Z,88.71
2023-01-06T13:04:40.318Z,88.56
2023-01-06T13:06:20.585Z,88.16
2023-01-06T13:08:00.869Z,87.77
2023-01-06T13:09:41.188Z,86.63
2023-01-06T13:11:21.453Z,87.53
2023-01-06T13:13:01.757Z,87.39
2023-01-06T13:14:42.106Z,86.64
2023-01-06T13:16:22.421Z,85.57
2023-01-06T13:18:04.711Z,85.16
2023-01-06T13:19:42.984Z,84.71
2023-01-06T13:21:23.288Z,83.48
2023-01-06T13:23:03.567Z,84.43
2023-01-06T13:24:43.894Z,83.97
2023-01-06T13:26:24.171Z,84.01
2023-01-06T13:28:04.474Z,84.18
2023-01-06T13:29:44.747Z,84.23
2023-01-06T13:31:25.063Z,82.69
2023-01-06T13:33:05.353Z,82.65
2023-01-06T13:34:45.663Z,82.96
2023-01-06T13:36:25.955Z,82.45
2023-01-06T13:38:06.257Z,82.33
2023-01-06T13:39:46.530Z,80.87
2023-01-06T13:41:26.832Z,81.13
2023-01-06T13:43:07.214Z,81.94
2023-01-06T13:44:47.457Z,81.41
2023-01-06T13:46:27.753Z,81.17
2023-01-06T13:48:08.065Z,81.99
2023-01-06T13:49:48.301Z,82.75
2023-01-06T13:51:28.592Z,82.45
2023-01-06T13:53:08.904Z,80.93
2023-01-06T13:54:49.171Z,81.34
2023-01-06T13:56:29.466Z,80.69
2023-01-06T13:58:09.778Z,80.74
2023-01-06T13:59:50.058Z,79.52
2023-01-06T14:01:30.519Z,79.33
2023-01-06T14:03:10.735Z,79.34
2023-01-06T14:04:50.928Z,80.28
2023-01-06T14:06:31.238Z,79.93
2023-01-06T14:08:11.530Z,80.42
2023-01-06T14:09:54.877Z,80.42
2023-01-06T14:11:32.118Z,79.24
2023-01-06T14:13:12.399Z,79.11
2023-01-06T14:14:52.704Z,80.13
2023-01-06T14:16:32.992Z,80.09
2023-01-06T14:18:13.334Z,80.37
2023-01-06T14:19:53.614Z,80.49
2023-01-06T14:21:33.926Z,80.29
2023-01-06T14:23:14.224Z,80.79
2023-01-06T14:24:54.492Z,81.69
2023-01-06T14:26:34.778Z,81.12
2023-01-06T14:28:20.289Z,81.12
2023-01-06T14:30:00.686Z,80.96
2023-01-06T14:31:41.004Z,80.73
2023-01-06T14:33:21.294Z,81.32
2023-01-06T14:35:01.704Z,81.46
2023-01-06T14:36:41.947Z,82.07
2023-01-06T14:38:22.360Z,82.95
2023-01-06T14:40:02.590Z,83.11
2023-01-06T14:41:42.891Z,82.32
2023-01-06T14:43:23.267Z,83.13
2023-01-06T14:45:03.543Z,82.52
2023-01-06T14:46:43.892Z,82.19
2023-01-06T14:48:24.206Z,82.13
2023-01-06T14:50:04.518Z,82.21
2023-01-06T14:51:44.816Z,82.73
2023-01-06T14:53:25.148Z,83.2
2023-01-06T14:55:05.474Z,83.57
2023-01-06T14:56:45.760Z,84.54
2023-01-06T14:58:26.092Z,84.57
2023-01-06T15:00:06.430Z,84.63
2023-01-06T15:01:46.849Z,84.14
2023-01-06T15:03:27.108Z,84.63
2023-01-06T15:05:07.675Z,84.8
2023-01-06T15:06:47.666Z,85.2
2023-01-06T15:08:27.979Z,85.8
2023-01-06T15:10:08.307Z,86.33
2023-01-06T15:11:48.607Z,86.52
2023-01-06T15:13:28.924Z,86.82
2023-01-06T15:15:09.276Z,86.76
2023-01-06T15:16:49.552Z,85.85
2023-01-06T15:18:29.904Z,86
2023-01-06T15:20:10.240Z,86.5
2023-01-06T15:21:50.550Z,86.99
2023-01-06T15:23:30.857Z,87.08
2023-01-06T15:25:11.192Z,87.51
2023-01-06T15:26:51.461Z,87.61
2023-01-06T15:28:31.782Z,87.5
2023-01-06T15:30:12.060Z,87.55
2023-01-06T15:31:52.360Z,87.93
2023-01-06T15:33:32.643Z,88.33
2023-01-06T15:35:12.972Z,88.71
2023-01-06T15:36:53.269Z,89.22
2023-01-06T15:38:33.550Z,89.5
2023-01-06T15:40:13.849Z,89.38
2023-01-06T15:41:54.137Z,89.48
2023-01-06T15:43:34.417Z,89.59
2023-01-06T15:45:14.787Z,89.69
2023-01-06T15:46:55.176Z,90.41
2023-01-06T15:48:35.622Z,90.35
2023-01-06T15:50:15.892Z,90.62
2023-01-06T15:51:56.263Z,90.69
2023-01-06T15:53:36.547Z,90.33
2023-01-06T15:55:16.829Z,90.6
2023-01-06T15:57:05.111Z,91.04
2023-01-06T15:58:37.469Z,91.03
2023-01-06T16:00:17.805Z,91.41
2023-01-06T16:01:58.362Z,91.91
2023-01-06T16:03:38.400Z,91.96
2023-01-06T16:05:18.756Z,91.75
2023-01-06T16:06:59.066Z,92.1
2023-01-06T16:08:39.486Z,91.85
2023-01-06T16:10:19.833Z,91.76
2023-01-06T16:12:00.237Z,92.05
2023-01-06T16:13:40.702Z,92.18
2023-01-06T16:15:20.800Z,92.33
2023-01-06T16:17:01.164Z,92.68
2023-01-06T16:18:44.528Z,92.45
2023-01-06T16:20:21.836Z,92.57
2023-01-06T16:22:02.148Z,92.93
2023-01-06T16:23:42.524Z,93.46
2023-01-06T16:25:22.895Z,93.68
2023-01-06T16:27:03.253Z,93.85
2023-01-06T16:28:43.582Z,93.94
2023-01-06T16:30:23.912Z,93.69
2023-01-06T16:32:04.261Z,93.97
2023-01-06T16:33:44.644Z,93.97
2023-01-06T16:35:25.057Z,94.64
2023-01-06T16:37:05.416Z,95.32
2023-01-06T16:38:45.786Z,95.11
2023-01-06T16:40:26.088Z,94.79
2023-01-06T16:42:06.425Z,94.11
2023-01-06T16:43:46.747Z,94.21
2023-01-06T16:45:27.058Z,94.74
2023-01-06T16:47:07.382Z,95.24
2023-01-06T16:48:47.709Z,95.09
2023-01-06T16:50:28.022Z,95
2023-01-06T16:52:08.364Z,95.04
2023-01-06T16:53:48.636Z,94.81
2023-01-06T16:55:28.968Z,94.47
2023-01-06T16:57:09.292Z,94.39
2023-01-06T16:58:49.573Z,94.77
2023-01-06T17:00:29.934Z,94.94
2023-01-06T17:02:12.855Z,95.17
2023-01-06T17:03:50.591Z,95.28
2023-01-06T17:05:30.865Z,94.88
2023-01-06T17:07:11.166Z,94.69
2023-01-06T17:08:51.476Z,94.72
2023-01-06T17:10:31.804Z,95.64
2023-01-06T17:12:12.132Z,96.04
2023-01-06T17:13:52.396Z,96.13
2023-01-06T17:15:32.736Z,96.21
2023-01-06T17:17:13.064Z,96.17
2023-01-06T17:18:53.379Z,96.36
2023-01-06T17:20:33.683Z,96.81
2023-01-06T17:22:14.041Z,97.21
2023-01-06T17:23:54.364Z,97.33
2023-01-06T17:25:34.663Z,97.59
2023-01-06T17:27:15.020Z,97.52
2023-01-06T17:28:55.308Z,97.52
2023-01-06T17:30:35.632Z,97.42
2023-01-06T17:32:15.982Z,97.25
2023-01-06T17:33:56.283Z,97.06
2023-01-06T17:35:36.586Z,96.88
2023-01-06T17:37:16.910Z,96.62
2023-01-06T17:38:57.246Z,96.53
2023-01-06T17:40:37.570Z,96.38
2023-01-06T17:42:17.876Z,96.3
2023-01-06T17:43:58.200Z,96.3
2023-01-06T17:45:38.524Z,96.22
2023-01-06T17:47:18.827Z,96.34
2023-01-06T17:48:59.169Z,96.67
2023-01-06T17:50:39.491Z,96.89
2023-01-06T17:52:19.832Z,96.96
2023-01-06T17:54:00.129Z,96.78
2023-01-06T17:55:40.430Z,96.6
2023-01-06T17:57:20.747Z,96.75
2023-01-06T17:59:01.091Z,96.83
2023-01-06T18:00:41.467Z,96.83
2023-01-06T18:02:21.708Z,97.01
2023-01-06T18:04:02.049Z,96.98
2023-01-06T18:05:42.198Z,97.17
2023-01-06T18:07:22.519Z,97.32
2023-01-06T18:09:02.825Z,97.21
2023-01-06T18:10:43.086Z,97.23
2023-01-06T18:12:23.354Z,97.24
2023-01-06T18:14:03.632Z,97.36
2023-01-06T18:15:43.957Z,97.35
2023-01-06T18:17:24.364Z,97.35
2023-01-06T18:19:04.714Z,97.39
2023-01-06T18:20:45.148Z,97.33
2023-01-06T18:22:25.599Z,97.3
2023-01-06T18:24:05.912Z,97.26
2023-01-06T18:25:46.237Z,97.29
2023-01-06T18:27:26.581Z,97.26
2023-01-06T18:29:06.889Z,97.27
2023-01-06T18:30:47.211Z,97.19
2023-01-06T18:32:27.498Z,97.1
2023-01-06T18:34:07.798Z,96.93
2023-01-06T18:35:48.127Z,96.91
2023-01-06T18:37:28.432Z,97.11
2023-01-06T18:39:08.661Z,97.13
2023-01-06T18:40:48.962Z,97
2023-01-06T18:42:29.227Z,96.96
2023-01-06T18:44:09.509Z,96.85
2023-01-06T18:45:52.905Z,96.84
2023-01-06T18:47:30.075Z,97
2023-01-06T18:49:10.378Z,97.04
2023-01-06T18:50:50.724Z,97.14
2023-01-06T18:52:30.943Z,97.2
2023-01-06T18:54:11.260Z,97.19
2023-01-06T18:55:54.613Z,97.2
2023-01-06T18:57:31.818Z,97.2
2023-01-06T18:59:12.106Z,97.33
2023-01-06T19:00:52.443Z,97.35
2023-01-06T19:02:32.645Z,97.29
2023-01-06T19:04:12.990Z,97.33
2023-01-06T19:05:53.221Z,97.4
2023-01-06T19:07:33.508Z,97.52
2023-01-06T19:09:13.840Z,97.51
2023-01-06T19:10:54.111Z,97.54
2023-01-06T19:12:34.403Z,97.57
2023-01-06T19:14:14.708Z,97.57
2023-01-06T19:15:55.039Z,97.65
2023-01-06T19:17:35.256Z,97.66
2023-01-06T19:19:15.542Z,97.73
2023-01-06T19:20:55.824Z,97.78
2023-01-06T19:22:36.095Z,97.89
2023-01-06T19:24:16.393Z,98.22
2023-01-06T19:25:56.698Z,98.49
2023-01-06T19:27:36.982Z,98.63
2023-01-06T19:29:17.255Z,98.59
2023-01-06T19:30:57.580Z,98.52
2023-01-06T19:32:37.838Z,98.48
2023-01-06T19:34:18.104Z,98.54
2023-01-06T19:36:01.486Z,98.54
2023-01-06T19:37:38.750Z,98.65
2023-01-06T19:39:19.096Z,98.79
2023-01-06T19:40:59.397Z,98.89
2023-01-06T19:42:39.658Z,98.96
2023-01-06T19:44:19.965Z,98.95
2023-01-06T19:46:03.404Z,98.97
2023-01-06T19:47:40.534Z,98.9
2023-01-06T19:49:20.828Z,98.79
2023-01-06T19:51:01.084Z,98.75
2023-01-06T19:52:41.365Z,98.78
2023-01-06T19:54:21.670Z,98.69
2023-01-06T19:56:01.964Z,98.58
2023-01-06T19:57:42.209Z,98.66
2023-01-06T19:59:22.505Z,98.51
2023-01-06T20:01:02.841Z,98.42
2023-01-06T20:02:43.135Z,98.27
2023-01-06T20:04:23.389Z,98.16
2023-01-06T20:06:03.657Z,98.07
2023-01-06T20:07:43.929Z,98.09
2023-01-06T20:09:24.244Z,98.21
2023-01-06T20:11:04.514Z,98.07
2023-01-06T20:12:44.863Z,98.23
2023-01-06T20:14:25.134Z,98.42
2023-01-06T20:16:05.482Z,98.41
2023-01-06T20:17:45.708Z,98.48
2023-01-06T20:19:25.977Z,98.59
2023-01-06T20:21:06.319Z,98.54
2023-01-06T20:22:46.548Z,98.55
2023-01-06T20:24:26.866Z,98.45
2023-01-06T20:26:07.171Z,98.43
2023-01-06T20:27:47.437Z,98.42
2023-01-06T20:29:27.742Z,98.44
2023-01-06T20:31:08.020Z,98.35
2023-01-06T20:32:48.282Z,98.35
2023-01-06T20:34:28.570Z,98.38
2023-01-06T20:36:08.872Z,98.23
2023-01-06T20:37:49.181Z,97.98
2023-01-06T20:39:29.488Z,97.81
2023-01-06T20:41:09.765Z,97.74
2023-01-06T20:42:50.047Z,97.92
2023-01-06T20:44:30.425Z,98.01
2023-01-06T20:46:10.709Z,98.34
2023-01-06T20:47:50.944Z,98.61
2023-01-06T20:49:31.231Z,98.7
2023-01-06T20:51:11.502Z,98.7
2023-01-06T20:52:51.818Z,98.73
2023-01-06T20:54:32.117Z,98.75
2023-01-06T20:56:12.415Z,98.74
2023-01-06T20:57:52.654Z,98.8
2023-01-06T20:59:32.983Z,98.82
2023-01-06T21:01:13.390Z,98.78
2023-01-06T21:02:53.564Z,98.74
2023-01-06T21:04:34.531Z,98.72
2023-01-06T21:06:14.098Z,98.82
2023-01-06T21:07:54.377Z,98.77
2023-01-06T21:09:34.665Z,98.73
2023-01-06T21:11:14.942Z,98.74
2023-01-06T21:12:55.227Z,98.74
2023-01-06T21:14:35.538Z,98.74
2023-01-06T21:16:15.877Z,98.75
2023-01-06T21:17:56.102Z,98.82
2023-01-06T21:19:36.376Z,98.79
2023-01-06T21:21:19.749Z,98.86
2023-01-06T21:22:56.964Z,98.96
2023-01-06T21:24:37.235Z,99.02
2023-01-06T21:26:17.559Z,99.17
2023-01-06T21:27:57.841Z,99.43
2023-01-06T21:29:38.128Z,99.62
2023-01-06T21:31:18.422Z,99.75
2023-01-06T21:32:58.735Z,99.79
2023-01-06T21:34:39.027Z,99.63
2023-01-06T21:36:19.343Z,99.51
2023-01-06T21:37:59.608Z,99.49
2023-01-06T21:39:39.899Z,99.31
2023-01-06T21:41:23.255Z,99.26
2023-01-06T21:43:00.521Z,99.08